createdAt,value
2022-09-16T00:01:11.459Z,10.8
2022-09-16T00:06:19.109Z,11
2022-09-16T00:16:34.372Z,10.9
2022-09-16T00:21:42.005Z,11
2022-09-16T00:26:49.609Z,11
2022-09-16T00:31:57.234Z,11.1
2022-09-16T00:37:04.836Z,11
2022-09-16T00:42:12.419Z,10.9
2022-09-16T00:47:20.041Z,10.8
2022-09-16T00:52:27.682Z,10.7
2022-09-16T00:57:35.276Z,10.7
2022-09-16T01:02:42.873Z,10.5
2022-09-16T01:07:50.460Z,10.4
2022-09-16T01:12:58.100Z,10.4
2022-09-16T01:18:05.739Z,10.4
2022-09-16T01:23:13.380Z,10.4
2022-09-16T01:28:21.002Z,10.3
2022-09-16T01:33:28.643Z,10.1
2022-09-16T01:43:43.957Z,10.1
2022-09-16T01:48:51.596Z,10.2
2022-09-16T01:53:59.242Z,10.1
2022-09-16T01:59:06.875Z,10.1
2022-09-16T02:04:14.535Z,10
2022-09-16T02:09:22.168Z,10.2
2022-09-16T02:14:29.803Z,10.1
2022-09-16T02:19:37.444Z,9.9
2022-09-16T02:24:45.083Z,10
2022-09-16T02:29:52.725Z,10
2022-09-16T02:35:00.405Z,10
2022-09-16T02:40:08.040Z,10
2022-09-16T02:45:15.685Z,10
2022-09-16T02:50:23.328Z,9.9
2022-09-16T02:55:31.008Z,9.9
2022-09-16T03:00:38.744Z,9.9
2022-09-16T03:05:46.379Z,9.9
2022-09-16T03:10:54.082Z,9.9
2022-09-16T03:16:01.736Z,9.9
2022-09-16T03:21:09.528Z,10
2022-09-16T03:26:17.065Z,10.1
2022-09-16T03:31:24.712Z,9.9
2022-09-16T03:36:32.390Z,10
2022-09-16T03:41:40.064Z,9.9
2022-09-16T03:46:47.774Z,9.9
2022-09-16T03:51:55.408Z,9.9
2022-09-16T03:57:03.164Z,9.8
2022-09-16T04:02:10.785Z,9.7
2022-09-16T04:07:18.399Z,9.7
2022-09-16T04:12:26.035Z,9.7
2022-09-16T04:17:33.733Z,9.7
2022-09-16T04:22:41.277Z,9.7
2022-09-16T04:27:48.910Z,9.6
2022-09-16T04:32:56.581Z,9.7
2022-09-16T04:38:04.160Z,9.6
2022-09-16T04:43:11.797Z,9.5
2022-09-16T04:48:19.453Z,9.3
2022-09-16T04:53:27.092Z,9.5
2022-09-16T04:58:34.747Z,9.5
2022-09-16T05:03:42.411Z,9.5
2022-09-16T05:08:50.074Z,9.6
2022-09-16T05:13:57.713Z,9.6
2022-09-16T05:19:05.369Z,9.7
2022-09-16T05:24:12.991Z,9.7
2022-09-16T05:29:20.641Z,9.8
2022-09-16T05:34:28.283Z,10
2022-09-16T05:39:35.937Z,10
2022-09-16T05:44:43.534Z,10.1
2022-09-16T05:49:51.191Z,10.4
2022-09-16T05:54:58.775Z,10.8
2022-09-16T06:00:06.433Z,10.9
2022-09-16T06:05:13.931Z,11
2022-09-16T06:10:21.490Z,11.1
2022-09-16T06:15:29.061Z,11.3
2022-09-16T06:20:36.655Z,11.4
2022-09-16T06:25:44.201Z,11.7
2022-09-16T06:30:51.750Z,11.9
2022-09-16T06:35:59.344Z,11.8
2022-09-16T06:41:06.754Z,12
2022-09-16T06:46:14.232Z,12.2
2022-09-16T06:51:21.732Z,12.7
2022-09-16T07:01:36.669Z,12.5
2022-09-16T07:06:44.126Z,13.3
2022-09-16T07:11:51.568Z,13.6
2022-09-16T07:16:58.999Z,14.4
2022-09-16T07:22:06.445Z,15.2
2022-09-16T07:27:13.742Z,13.8
2022-09-16T07:32:21.177Z,13.2
2022-09-16T07:37:28.393Z,13.7
2022-09-16T07:42:35.855Z,14.1
2022-09-16T07:47:43.031Z,14.6
2022-09-16T07:52:50.491Z,13.5
2022-09-16T07:57:57.680Z,13.3
2022-09-16T08:03:05.084Z,13.3
2022-09-16T08:08:12.522Z,15.1
2022-09-16T08:23:34.327Z,14.4
2022-09-16T08:28:41.700Z,14.3
2022-09-16T08:33:48.949Z,14.3
2022-09-16T08:38:56.274Z,15
2022-09-16T08:44:03.548Z,14.8
2022-09-16T08:49:10.982Z,15.7
2022-09-16T08:54:18.160Z,15.1
2022-09-16T08:59:25.548Z,15.5
2022-09-16T09:04:32.750Z,16
2022-09-16T09:09:40.044Z,18
2022-09-16T09:14:47.309Z,16.9
2022-09-16T09:19:54.572Z,17.2
2022-09-16T09:25:01.868Z,17
2022-09-16T09:30:09.160Z,16
2022-09-16T09:35:16.316Z,15.6
2022-09-16T09:40:23.592Z,14.3
2022-09-16T09:45:30.827Z,14.8
2022-09-16T09:50:38.096Z,14.8
2022-09-16T09:55:45.349Z,18.8
2022-09-16T10:00:52.644Z,17.1
2022-09-16T10:05:59.861Z,18.1
2022-09-16T10:11:06.962Z,18.9
2022-09-16T10:16:14.112Z,18.2
2022-09-16T10:21:21.210Z,16.6
2022-09-16T10:26:28.363Z,17.6
2022-09-16T10:31:35.413Z,18.9
2022-09-16T10:36:42.510Z,17.2
2022-09-16T10:41:49.596Z,16
2022-09-16T10:46:56.720Z,15.9
2022-09-16T10:52:03.915Z,17.4
2022-09-16T10:57:11.140Z,17
2022-09-16T11:02:18.280Z,17.4
2022-09-16T11:07:25.486Z,16.6
2022-09-16T11:12:32.700Z,15.7
2022-09-16T11:17:39.940Z,17.9
2022-09-16T11:22:47.150Z,17.7
2022-09-16T11:27:54.310Z,15.9
2022-09-16T11:33:01.528Z,18.3
2022-09-16T11:38:08.684Z,20.7
2022-09-16T11:43:15.872Z,19.3
2022-09-16T11:48:23.071Z,20.9
2022-09-16T11:53:30.127Z,21.1
2022-09-16T11:58:37.234Z,19.9
2022-09-16T12:03:44.177Z,17.7
2022-09-16T12:08:51.241Z,19
2022-09-16T12:13:58.306Z,19.8
2022-09-16T12:19:05.409Z,21
2022-09-16T12:24:12.450Z,20.9
2022-09-16T12:29:19.427Z,19.5
2022-09-16T12:34:26.451Z,21.4
2022-09-16T12:39:33.462Z,16.9
2022-09-16T12:44:40.547Z,16.7
2022-09-16T12:49:47.697Z,17.2
2022-09-16T12:54:54.836Z,16.1
2022-09-16T13:00:02.003Z,16.2
2022-09-16T13:05:09.284Z,18.9
2022-09-16T13:10:16.305Z,21.7
2022-09-16T13:15:23.459Z,18
2022-09-16T13:20:30.509Z,20.9
2022-09-16T13:25:37.544Z,20.5
2022-09-16T13:30:44.522Z,18.7
2022-09-16T13:35:51.597Z,16.2
2022-09-16T13:40:58.729Z,18.6
2022-09-16T13:46:05.851Z,20.8
2022-09-16T13:51:12.914Z,22.2
2022-09-16T13:56:19.947Z,19.2
2022-09-16T14:01:26.982Z,19.5
2022-09-16T14:06:34.123Z,19.4
2022-09-16T14:16:48.150Z,19.7
2022-09-16T14:21:55.175Z,21
2022-09-16T14:27:02.056Z,18.9
2022-09-16T14:32:09.055Z,20.3
2022-09-16T14:37:16.036Z,17.9
2022-09-16T14:42:23.180Z,20.1
2022-09-16T14:47:30.098Z,17.2
2022-09-16T14:52:37.296Z,16.8
2022-09-16T14:57:44.413Z,16.9
2022-09-16T15:02:51.553Z,17.4
2022-09-16T15:07:58.718Z,20.7
2022-09-16T15:13:05.835Z,19.8
2022-09-16T15:18:12.901Z,20.1
2022-09-16T15:23:19.948Z,18
2022-09-16T15:28:26.962Z,18
2022-09-16T15:33:33.868Z,17.2
2022-09-16T15:38:41.117Z,16.2
2022-09-16T15:43:48.335Z,15.8
2022-09-16T15:48:55.327Z,15.5
2022-09-16T15:54:02.677Z,15.4
2022-09-16T15:59:09.889Z,15.1
2022-09-16T16:04:17.131Z,15
2022-09-16T16:09:24.455Z,15.4
2022-09-16T16:14:31.696Z,15.5
2022-09-16T16:19:38.999Z,15
2022-09-16T16:24:46.303Z,14.9
2022-09-16T16:29:53.633Z,14.7
2022-09-16T16:35:00.897Z,14.6
2022-09-16T16:40:08.206Z,14.3
2022-09-16T16:45:15.576Z,14.2
2022-09-16T16:50:22.957Z,13.9
2022-09-16T16:55:30.342Z,13.9
2022-09-16T17:00:37.755Z,13.8
2022-09-16T17:05:45.162Z,13.7
2022-09-16T17:10:52.588Z,13.7
2022-09-16T17:16:00.033Z,13.5
2022-09-16T17:21:07.444Z,13.4
2022-09-16T17:26:14.875Z,13.5
2022-09-16T17:31:22.371Z,13.1
2022-09-16T17:36:29.606Z,13.1
2022-09-16T17:41:37.224Z,13.2
2022-09-16T17:46:44.720Z,13.1
2022-09-16T17:51:52.173Z,12.8
2022-09-16T17:56:59.497Z,12.6
2022-09-16T18:02:06.971Z,12.7
2022-09-16T18:07:14.649Z,12.8
2022-09-16T18:12:21.981Z,12.8
2022-09-16T18:17:29.674Z,12.9
2022-09-16T18:22:37.176Z,13
2022-09-16T18:27:44.682Z,13
2022-09-16T18:32:52.225Z,13.1
2022-09-16T18:37:59.763Z,13.3
2022-09-16T18:43:07.284Z,13.3
2022-09-16T18:48:14.709Z,13.2
2022-09-16T18:53:22.245Z,13.3
2022-09-16T18:58:29.789Z,13.2
2022-09-16T19:03:37.305Z,13.2
2022-09-16T19:08:44.822Z,13.2
2022-09-16T19:13:52.333Z,12.6
2022-09-16T19:18:59.705Z,12.2
2022-09-16T19:24:07.314Z,11.9
2022-09-16T19:29:15.017Z,11.6
2022-09-16T19:34:22.575Z,11.4
2022-09-16T19:39:30.148Z,11.2
2022-09-16T19:44:37.841Z,11.1
2022-09-16T19:49:45.482Z,10.9
2022-09-16T19:54:52.958Z,10.9
2022-09-16T20:00:00.658Z,10.9
2022-09-16T20:05:08.314Z,11
2022-09-16T20:10:16.041Z,11.1
2022-09-16T20:15:23.767Z,11.1
2022-09-16T20:20:31.311Z,11.4
2022-09-16T20:25:39.065Z,11.6
2022-09-16T20:30:46.749Z,11.7
2022-09-16T20:35:54.272Z,11.8
2022-09-16T20:41:01.912Z,12
2022-09-16T20:46:09.579Z,11.7
2022-09-16T20:51:17.156Z,11.5
2022-09-16T20:56:24.954Z,11
2022-09-16T21:01:32.589Z,11
2022-09-16T21:06:40.098Z,11.1
2022-09-16T21:11:47.762Z,11
2022-09-16T21:16:55.517Z,11
2022-09-16T21:22:03.107Z,11.1
2022-09-16T21:32:18.479Z,11
2022-09-16T21:37:26.187Z,10.9
2022-09-16T21:42:33.651Z,10.9
2022-09-16T21:47:41.380Z,11
2022-09-16T21:52:49.103Z,11.3
2022-09-16T21:57:56.597Z,11.4
2022-09-16T22:03:04.384Z,11.4
2022-09-16T22:08:11.922Z,11.4
2022-09-16T22:13:19.530Z,11.4
2022-09-16T22:18:27.263Z,11.5
2022-09-16T22:23:34.901Z,11.6
2022-09-16T22:28:42.518Z,11.7
2022-09-16T22:33:50.160Z,11.8
2022-09-16T22:38:57.794Z,11.8
2022-09-16T22:44:05.351Z,11.7
2022-09-16T22:54:20.600Z,11.6
2022-09-16T22:59:28.110Z,11.7
2022-09-16T23:04:35.720Z,11.6
2022-09-16T23:09:43.419Z,11.6
2022-09-16T23:14:50.986Z,11.6
2022-09-16T23:19:58.635Z,11.6
2022-09-16T23:25:06.240Z,11.6
2022-09-16T23:30:13.826Z,11.7
2022-09-16T23:35:21.339Z,11.6
2022-09-16T23:40:29.008Z,11.7
2022-09-16T23:45:36.537Z,11.6
2022-09-16T23:50:44.208Z,11.5
2022-09-16T23:55:51.719Z,11.6
